CheckWX is a tool to help pilots better visualize weather data.  It is not intended as a substitute for an official pre-flight weather briefing.

15:11:26 UTC

LIRG TAF
Guidonia Airport
Guidonia, Italy
TAF LIRG 131400Z 1315/1324 16015KT 8000 SCT018 BKN030 BECMG 1315/1317 26018G36KT TEMPO 1315/1318 3000 SHRA BKN018 FEW020CB

Dec-13@
15:00 UTC

Dec-13 @ 15:00 UTC

Dec-14@
00:00 UTC

Dec-14 @ 00:00 UTC

TAF LIRG 131400Z 1315/1324 16015KT 8000 SCT018 BKN030
Wind
  • 160° at 15 KTS
Cloud Levels
  • Scattered at 1,800' AGL
  • Broken at 3,000' AGL

Dec-13@
15:00 UTC

Dec-13 @ 15:00 UTC

Dec-13@
18:00 UTC

Dec-13 @ 18:00 UTC

TEMPO 1315/1318 3000 SHRA BKN018 FEW020CB

Temporary

Temporary Changes expected for less than half the time period

Conditions
Rain
Cloud Levels
  • Broken at 1,800' AGL
  • Few at 2,000' AGL

Dec-13@
15:00 UTC

Dec-13 @ 15:00 UTC

Dec-14@
00:00 UTC

Dec-14 @ 00:00 UTC

BECMG 1315/1317 26018G36KT

Becoming

Becoming Conditions expected by Fri, Dec 13, 2019 @ 17:00 UTC

Wind
  • 260° at 18 KTS
  • {Gusting to 36 KTS
Cloud Levels
  • Scattered at 1,800' AGL
  • Broken at 3,000' AGL